Time;durP1;ratioP1;P1;durP2;ratioP2;P2;SDS_P1;SDS_P2;PMS_P1;PMS_P2;Temp;Humidity;BMP_temperature;BMP_pressure;BME280_temperature;BME280_humidity;BME280_pressure;Samples;Min_cycle;Max_cycle;Signal;HPM_P1;HPM_P2
2023/03/06 00:01:36;;;;;;;;;;;9.20;54.00;;;;;;5035707;28;19924;-92
2023/03/06 00:04:02;;;;;;;;;;;9.20;54.10;;;;;;5053151;28;19908;-92
2023/03/06 00:06:28;;;;;;;;;;;9.20;54.00;;;;;;5034094;28;19916;-92
2023/03/06 00:08:54;;;;;;;;;;;9.30;54.10;;;;;;5053361;28;19916;-92
2023/03/06 00:11:20;;;;;;;;;;;9.30;54.20;;;;;;5034594;28;19928;-93
2023/03/06 00:13:52;;;;;;;;;;;9.40;54.10;;;;;;5034447;28;19909;-91
2023/03/06 00:16:17;;;;;;;;;;;9.50;54.20;;;;;;5052304;28;20291;-93
2023/03/06 00:18:46;;;;;;;;;;;9.50;54.20;;;;;;5034559;28;19913;-92
2023/03/06 00:21:12;;;;;;;;;;;9.50;54.00;;;;;;5034355;28;19909;-92
2023/03/06 00:23:38;;;;;;;;;;;9.60;54.10;;;;;;5033793;28;20058;-90
2023/03/06 00:26:06;;;;;;;;;;;9.60;54.10;;;;;;5052603;28;20263;-91
2023/03/06 00:28:31;;;;;;;;;;;9.60;54.00;;;;;;5052920;28;19924;-90
2023/03/06 00:30:57;;;;;;;;;;;9.60;54.00;;;;;;5034724;28;19912;-88
2023/03/06 00:33:23;;;;;;;;;;;9.60;54.00;;;;;;5051916;28;19927;-88
2023/03/06 00:35:50;;;;;;;;;;;9.50;54.00;;;;;;5035170;28;20004;-92
2023/03/06 00:38:16;;;;;;;;;;;9.50;54.00;;;;;;5050475;28;19913;-89
2023/03/06 00:40:43;;;;;;;;;;;9.50;53.90;;;;;;5053003;28;20368;-91
2023/03/06 00:43:08;;;;;;;;;;;9.50;54.00;;;;;;5033745;28;19913;-89
2023/03/06 00:45:37;;;;;;;;;;;9.50;54.00;;;;;;5042619;28;19921;-90
2023/03/06 00:48:03;;;;;;;;;;;9.60;54.10;;;;;;5013599;28;19921;-91
2023/03/06 00:50:29;;;;;;;;;;;9.50;53.90;;;;;;5042090;28;20022;-92
2023/03/06 00:52:54;;;;;;;;;;;9.60;53.80;;;;;;5032328;28;19946;-91
2023/03/06 00:55:20;;;;;;;;;;;9.50;53.70;;;;;;5049976;28;20338;-90
2023/03/06 00:57:46;;;;;;;;;;;9.50;53.70;;;;;;5032959;28;19917;-90
2023/03/06 01:00:12;;;;;;;;;;;9.50;53.80;;;;;;5050477;28;19917;-92
2023/03/06 01:02:38;;;;;;;;;;;9.50;53.90;;;;;;5049770;28;19970;-90
2023/03/06 01:05:03;;;;;;;;;;;9.50;53.90;;;;;;5050727;28;19917;-90
2023/03/06 01:07:32;;;;;;;;;;;9.50;53.80;;;;;;5024189;28;19913;-91
2023/03/06 01:09:58;;;;;;;;;;;9.50;53.80;;;;;;5050832;28;20180;-89
2023/03/06 01:12:24;;;;;;;;;;;9.50;53.80;;;;;;5031375;28;20083;-88
2023/03/06 01:14:50;;;;;;;;;;;9.50;53.70;;;;;;5032665;28;19924;-90
2023/03/06 01:17:17;;;;;;;;;;;9.50;53.70;;;;;;5032179;28;19913;-92
2023/03/06 01:19:42;;;;;;;;;;;9.50;53.70;;;;;;5031668;28;20419;-90
2023/03/06 01:22:08;;;;;;;;;;;9.50;53.80;;;;;;5032368;28;20530;-89
2023/03/06 01:24:34;;;;;;;;;;;9.50;53.70;;;;;;5049633;28;19956;-90
2023/03/06 01:27:00;;;;;;;;;;;9.50;53.70;;;;;;5032440;28;19919;-90
2023/03/06 01:29:25;;;;;;;;;;;9.50;53.70;;;;;;5031326;28;19963;-93
2023/03/06 01:31:51;;;;;;;;;;;9.40;53.80;;;;;;5031381;28;20383;-91
2023/03/06 01:34:17;;;;;;;;;;;9.40;53.80;;;;;;5032091;28;20015;-92
2023/03/06 01:36:43;;;;;;;;;;;9.40;53.90;;;;;;5032192;28;19919;-91
2023/03/06 01:39:09;;;;;;;;;;;9.40;53.80;;;;;;5050040;28;19916;-91
2023/03/06 01:41:36;;;;;;;;;;;9.40;53.80;;;;;;5050408;28;19942;-92
2023/03/06 01:44:01;;;;;;;;;;;9.30;53.80;;;;;;5031606;28;20368;-90
2023/03/06 01:46:27;;;;;;;;;;;9.30;53.90;;;;;;5027494;28;19928;-91
2023/03/06 01:49:13;;;;;;;;;;;9.30;53.70;;;;;;5049725;28;19921;-91
2023/03/06 01:51:42;;;;;;;;;;;9.30;53.80;;;;;;5043434;28;20296;-88
2023/03/06 01:54:12;;;;;;;;;;;9.20;53.80;;;;;;5031719;28;19925;-92
2023/03/06 01:56:39;;;;;;;;;;;9.20;54.00;;;;;;5032159;28;19920;-91
2023/03/06 01:59:06;;;;;;;;;;;9.20;54.00;;;;;;5032255;28;19963;-90
2023/03/06 02:01:32;;;;;;;;;;;9.20;54.00;;;;;;5050241;28;19920;-91
2023/03/06 02:03:59;;;;;;;;;;;9.20;54.10;;;;;;5049824;28;19967;-90
2023/03/06 02:06:24;;;;;;;;;;;9.20;54.20;;;;;;5032161;28;20283;-92
2023/03/06 02:08:51;;;;;;;;;;;9.20;54.20;;;;;;5032576;28;20318;-93
2023/03/06 02:11:19;;;;;;;;;;;9.20;54.20;;;;;;5049647;28;20337;-91
2023/03/06 02:13:45;;;;;;;;;;;9.20;54.20;;;;;;5030621;28;19936;-91
2023/03/06 02:16:12;;;;;;;;;;;9.20;54.20;;;;;;5029571;28;20490;-90
2023/03/06 02:18:39;;;;;;;;;;;9.20;54.10;;;;;;5031201;28;20364;-93
2023/03/06 02:21:06;;;;;;;;;;;9.10;54.00;;;;;;5029952;28;20455;-92
2023/03/06 02:23:39;;;;;;;;;;;9.00;54.00;;;;;;5028892;28;20434;-91
2023/03/06 02:26:06;;;;;;;;;;;8.90;54.10;;;;;;5029339;28;19916;-90
2023/03/06 02:28:33;;;;;;;;;;;8.80;54.20;;;;;;5029882;28;19924;-91
2023/03/06 02:30:58;;;;;;;;;;;8.70;54.10;;;;;;5028863;28;19913;-90
2023/03/06 02:33:26;;;;;;;;;;;8.70;54.00;;;;;;5030829;28;20261;-92
2023/03/06 02:35:53;;;;;;;;;;;8.60;54.10;;;;;;5033275;28;19913;-90
2023/03/06 02:38:20;;;;;;;;;;;8.50;54.30;;;;;;5034905;28;20313;-92
2023/03/06 02:40:47;;;;;;;;;;;8.50;54.50;;;;;;5034713;28;20331;-92
2023/03/06 02:43:14;;;;;;;;;;;8.40;54.70;;;;;;5034391;28;20295;-91
2023/03/06 02:45:44;;;;;;;;;;;8.40;54.80;;;;;;5043358;28;20306;-91
2023/03/06 02:48:13;;;;;;;;;;;8.40;54.90;;;;;;5035408;28;19960;-93
2023/03/06 02:50:39;;;;;;;;;;;8.40;55.00;;;;;;5036057;28;20363;-91
2023/03/06 02:53:06;;;;;;;;;;;8.40;55.10;;;;;;5035503;28;20302;-92
2023/03/06 02:55:36;;;;;;;;;;;8.50;55.20;;;;;;5053856;28;19955;-91
2023/03/06 02:58:02;;;;;;;;;;;8.50;55.20;;;;;;5035538;28;19913;-90
2023/03/06 03:00:27;;;;;;;;;;;8.50;55.10;;;;;;5035784;28;19920;-93
2023/03/06 03:02:53;;;;;;;;;;;8.60;55.00;;;;;;5035707;28;20376;-90
2023/03/06 03:05:19;;;;;;;;;;;8.50;54.90;;;;;;5053099;28;19948;-89
2023/03/06 03:07:44;;;;;;;;;;;8.50;54.90;;;;;;5053306;28;19913;-91
2023/03/06 03:10:13;;;;;;;;;;;8.50;55.00;;;;;;5053470;28;19920;-91
2023/03/06 03:12:39;;;;;;;;;;;8.40;55.10;;;;;;5034553;28;19931;-89
2023/03/06 03:15:05;;;;;;;;;;;8.40;55.20;;;;;;5052837;28;19913;-89
2023/03/06 03:17:31;;;;;;;;;;;8.40;55.30;;;;;;5035389;28;19920;-89
2023/03/06 03:19:56;;;;;;;;;;;8.30;55.30;;;;;;5035317;28;19913;-90
2023/03/06 03:22:22;;;;;;;;;;;8.30;55.30;;;;;;5035516;28;19967;-89
2023/03/06 03:24:48;;;;;;;;;;;8.30;55.40;;;;;;5035244;28;19913;-91
2023/03/06 03:27:16;;;;;;;;;;;8.30;55.40;;;;;;5053586;28;19963;-91
2023/03/06 03:29:42;;;;;;;;;;;8.30;55.40;;;;;;5034809;28;20268;-92
2023/03/06 03:32:08;;;;;;;;;;;8.30;55.50;;;;;;5035411;28;19924;-89
2023/03/06 03:34:33;;;;;;;;;;;8.40;55.50;;;;;;5052912;28;19913;-92
2023/03/06 03:36:59;;;;;;;;;;;8.30;55.50;;;;;;5034978;28;19917;-89
2023/03/06 03:39:27;;;;;;;;;;;8.40;55.60;;;;;;5034733;28;19917;-91
2023/03/06 03:41:53;;;;;;;;;;;8.40;55.50;;;;;;5052468;28;19913;-90
2023/03/06 03:44:19;;;;;;;;;;;8.40;55.50;;;;;;5034061;28;19971;-91
2023/03/06 03:46:44;;;;;;;;;;;8.30;55.40;;;;;;5035100;28;19939;-92
2023/03/06 03:49:11;;;;;;;;;;;8.30;55.40;;;;;;5034480;28;19992;-89
2023/03/06 03:51:37;;;;;;;;;;;8.30;55.40;;;;;;5034994;28;20390;-90
2023/03/06 03:54:04;;;;;;;;;;;8.30;55.40;;;;;;5053140;28;20355;-92
2023/03/06 03:56:30;;;;;;;;;;;8.30;55.40;;;;;;5052491;28;19917;-93
2023/03/06 03:58:56;;;;;;;;;;;8.30;55.50;;;;;;5051961;28;19912;-90
2023/03/06 04:01:22;;;;;;;;;;;8.30;55.50;;;;;;5034546;28;20202;-92
2023/03/06 04:03:48;;;;;;;;;;;8.20;55.50;;;;;;5052086;28;20070;-89
2023/03/06 04:06:14;;;;;;;;;;;8.20;55.50;;;;;;5034134;28;19944;-92
2023/03/06 04:08:39;;;;;;;;;;;8.20;55.50;;;;;;5034965;28;19913;-90
2023/03/06 04:11:05;;;;;;;;;;;8.20;55.40;;;;;;5033597;28;19909;-89
2023/03/06 04:13:31;;;;;;;;;;;8.10;55.30;;;;;;5034338;28;19925;-90
2023/03/06 04:15:58;;;;;;;;;;;8.00;55.20;;;;;;5051536;28;19959;-89
2023/03/06 04:18:24;;;;;;;;;;;8.00;55.20;;;;;;5051628;28;19917;-91
2023/03/06 04:20:49;;;;;;;;;;;7.90;55.20;;;;;;5052246;28;20295;-90
2023/03/06 04:23:15;;;;;;;;;;;7.80;55.30;;;;;;5033781;28;20014;-89
2023/03/06 04:25:41;;;;;;;;;;;7.80;55.40;;;;;;5051627;28;19921;-89
2023/03/06 04:28:07;;;;;;;;;;;7.70;55.10;;;;;;5034359;28;20303;-90
2023/03/06 04:30:36;;;;;;;;;;;7.60;54.90;;;;;;5033930;28;19916;-90
2023/03/06 04:33:02;;;;;;;;;;;7.50;55.10;;;;;;5033242;28;20477;-91
2023/03/06 04:35:28;;;;;;;;;;;7.50;55.70;;;;;;5051397;28;19921;-91
2023/03/06 04:37:53;;;;;;;;;;;7.50;56.10;;;;;;5051794;28;19943;-90
2023/03/06 04:40:20;;;;;;;;;;;7.50;56.40;;;;;;5033819;28;20075;-90
2023/03/06 04:42:46;;;;;;;;;;;7.70;56.50;;;;;;5039063;28;19909;-91
2023/03/06 04:45:15;;;;;;;;;;;7.80;56.50;;;;;;5038793;28;19924;-90
2023/03/06 04:47:41;;;;;;;;;;;7.90;56.40;;;;;;5032631;28;19916;-89
2023/03/06 04:50:07;;;;;;;;;;;8.00;56.30;;;;;;5033428;28;19916;-89
2023/03/06 04:52:33;;;;;;;;;;;8.20;56.30;;;;;;5050666;28;19921;-92
2023/03/06 04:54:58;;;;;;;;;;;8.20;56.20;;;;;;5065751;28;20361;-90
2023/03/06 04:57:26;;;;;;;;;;;8.30;56.10;;;;;;5051102;28;19920;-91
2023/03/06 04:59:52;;;;;;;;;;;8.40;56.20;;;;;;5023806;28;19944;-91
2023/03/06 05:02:17;;;;;;;;;;;8.50;56.20;;;;;;5013258;28;20314;-92
2023/03/06 05:04:44;;;;;;;;;;;8.50;56.20;;;;;;5013914;28;19913;-90
2023/03/06 05:07:09;;;;;;;;;;;8.60;56.00;;;;;;5013090;28;20019;-91
2023/03/06 05:09:35;;;;;;;;;;;8.70;56.10;;;;;;5030746;28;20004;-93
2023/03/06 05:12:01;;;;;;;;;;;8.70;56.00;;;;;;5012791;28;19967;-93
2023/03/06 05:14:30;;;;;;;;;;;8.80;56.00;;;;;;5013499;28;19948;-92
2023/03/06 05:16:58;;;;;;;;;;;8.80;56.10;;;;;;5037155;28;20465;-90
2023/03/06 05:19:26;;;;;;;;;;;8.90;56.00;;;;;;5037868;28;19952;-94
2023/03/06 05:21:52;;;;;;;;;;;9.00;55.90;;;;;;5030838;28;19913;-92
2023/03/06 05:24:21;;;;;;;;;;;9.00;55.80;;;;;;5031035;28;19928;-92
2023/03/06 05:26:46;;;;;;;;;;;9.00;55.60;;;;;;5029462;28;19913;-91
2023/03/06 05:29:12;;;;;;;;;;;9.00;55.50;;;;;;5029374;28;19917;-93
2023/03/06 05:31:38;;;;;;;;;;;8.90;55.50;;;;;;5029575;28;19971;-89
2023/03/06 05:34:04;;;;;;;;;;;8.90;55.50;;;;;;5029364;28;19913;-88
2023/03/06 05:36:32;;;;;;;;;;;8.80;55.50;;;;;;5030590;28;19913;-90
2023/03/06 05:38:58;;;;;;;;;;;8.80;55.60;;;;;;5030782;28;19917;-91
2023/03/06 05:41:23;;;;;;;;;;;8.80;55.60;;;;;;5029415;28;20067;-89
2023/03/06 05:43:51;;;;;;;;;;;8.80;55.60;;;;;;5029161;28;19921;-92
2023/03/06 05:46:18;;;;;;;;;;;8.80;55.60;;;;;;5044886;28;21358;-90
2023/03/06 05:48:45;;;;;;;;;;;8.80;55.60;;;;;;5050583;28;19913;-91
2023/03/06 05:51:11;;;;;;;;;;;8.80;55.60;;;;;;5032338;28;19970;-92
2023/03/06 05:53:36;;;;;;;;;;;8.80;55.70;;;;;;5050332;28;19921;-90
2023/03/06 05:56:04;;;;;;;;;;;8.80;55.70;;;;;;5032118;28;19909;-90
2023/03/06 05:58:31;;;;;;;;;;;8.90;55.80;;;;;;5050525;28;19924;-92
2023/03/06 06:00:57;;;;;;;;;;;8.90;55.80;;;;;;5031065;28;19999;-92
2023/03/06 06:03:26;;;;;;;;;;;9.00;55.80;;;;;;5046689;28;19917;-86
2023/03/06 06:05:51;;;;;;;;;;;9.00;55.70;;;;;;5040662;28;19913;-88
2023/03/06 06:08:17;;;;;;;;;;;9.00;55.50;;;;;;5049362;28;20397;-87
2023/03/06 06:10:43;;;;;;;;;;;9.10;55.40;;;;;;5049384;28;19924;-90
2023/03/06 06:13:11;;;;;;;;;;;9.10;55.50;;;;;;5022743;28;19932;-87
2023/03/06 06:15:37;;;;;;;;;;;9.10;55.50;;;;;;5039102;28;19932;-85
2023/03/06 06:18:03;;;;;;;;;;;9.10;55.50;;;;;;5037626;28;19921;-89
2023/03/06 06:20:28;;;;;;;;;;;9.10;55.40;;;;;;5024556;28;19917;-89
2023/03/06 06:22:57;;;;;;;;;;;9.10;55.30;;;;;;5030625;28;19924;-86
2023/03/06 06:25:22;;;;;;;;;;;9.10;55.30;;;;;;5041174;28;19924;-89
2023/03/06 06:27:48;;;;;;;;;;;9.10;55.20;;;;;;5024891;28;19913;-86
2023/03/06 06:30:14;;;;;;;;;;;9.10;55.20;;;;;;5049279;28;19917;-89
2023/03/06 06:32:39;;;;;;;;;;;9.10;55.10;;;;;;5031226;28;19921;-87
2023/03/06 06:35:05;;;;;;;;;;;9.10;55.20;;;;;;5031631;28;20298;-89
2023/03/06 06:37:31;;;;;;;;;;;9.10;55.20;;;;;;5031212;28;20324;-87
2023/03/06 06:39:56;;;;;;;;;;;9.10;55.30;;;;;;5049271;28;20363;-86
2023/03/06 06:42:22;;;;;;;;;;;9.10;55.20;;;;;;5048953;28;19913;-86
2023/03/06 06:44:47;;;;;;;;;;;9.10;55.30;;;;;;5046159;28;20437;-88
2023/03/06 06:47:13;;;;;;;;;;;9.20;55.20;;;;;;5038470;28;19967;-89
2023/03/06 06:49:38;;;;;;;;;;;9.20;55.10;;;;;;5031674;28;19947;-88
2023/03/06 06:52:07;;;;;;;;;;;9.30;55.10;;;;;;5031174;28;19925;-90
2023/03/06 06:54:33;;;;;;;;;;;9.30;55.10;;;;;;5048442;28;19955;-90
2023/03/06 06:56:58;;;;;;;;;;;9.40;55.00;;;;;;5048873;28;20020;-86
2023/03/06 06:59:24;;;;;;;;;;;9.50;55.10;;;;;;5044506;28;20015;-87
2023/03/06 07:01:51;;;;;;;;;;;9.50;55.00;;;;;;5031012;28;19963;-90
2023/03/06 07:04:16;;;;;;;;;;;9.60;54.90;;;;;;5028749;28;20324;-90
2023/03/06 07:06:42;;;;;;;;;;;9.70;54.80;;;;;;5026498;28;19996;-90
2023/03/06 07:09:08;;;;;;;;;;;9.80;54.70;;;;;;5028782;28;20077;-87
2023/03/06 07:11:33;;;;;;;;;;;9.80;54.50;;;;;;5029047;28;19921;-88
2023/03/06 07:14:00;;;;;;;;;;;9.90;54.50;;;;;;5048768;28;19971;-87
2023/03/06 07:16:26;;;;;;;;;;;9.90;54.40;;;;;;5047253;28;19913;-89
2023/03/06 07:18:51;;;;;;;;;;;10.00;54.40;;;;;;5043026;28;20299;-89
2023/03/06 07:21:18;;;;;;;;;;;10.10;54.40;;;;;;5045675;28;20007;-88
2023/03/06 07:23:43;;;;;;;;;;;10.20;54.10;;;;;;5046367;28;20863;-88
2023/03/06 07:26:09;;;;;;;;;;;10.10;54.00;;;;;;5047595;28;19920;-88
2023/03/06 07:28:34;;;;;;;;;;;10.20;54.00;;;;;;5048264;28;19913;-89
2023/03/06 07:31:01;;;;;;;;;;;10.20;54.00;;;;;;5042663;28;19917;-89
2023/03/06 07:33:27;;;;;;;;;;;10.30;53.90;;;;;;5047989;28;20318;-88
2023/03/06 07:35:55;;;;;;;;;;;10.30;53.90;;;;;;5042687;28;19920;-90
2023/03/06 07:38:23;;;;;;;;;;;10.40;53.90;;;;;;5050803;28;19927;-88
2023/03/06 07:40:50;;;;;;;;;;;10.50;53.80;;;;;;5045491;28;20383;-90
2023/03/06 07:43:15;;;;;;;;;;;10.50;53.90;;;;;;5047512;28;19957;-89
2023/03/06 07:45:41;;;;;;;;;;;10.50;53.80;;;;;;5036571;28;19921;-90
2023/03/06 07:48:06;;;;;;;;;;;10.50;53.50;;;;;;5032098;28;20017;-90
2023/03/06 07:50:33;;;;;;;;;;;10.60;53.50;;;;;;5031528;28;20390;-88
2023/03/06 07:52:59;;;;;;;;;;;10.50;53.30;;;;;;5034164;28;20022;-90
2023/03/06 07:55:25;;;;;;;;;;;10.50;53.50;;;;;;5047824;28;19999;-90
2023/03/06 07:57:50;;;;;;;;;;;10.50;53.40;;;;;;5067578;28;19917;-90
2023/03/06 08:00:16;;;;;;;;;;;10.50;53.30;;;;;;5052500;28;19924;-88
2023/03/06 08:02:42;;;;;;;;;;;10.40;53.50;;;;;;5051459;28;20488;-87
2023/03/06 08:05:08;;;;;;;;;;;10.30;53.70;;;;;;5048411;28;19920;-89
2023/03/06 08:07:34;;;;;;;;;;;10.30;54.00;;;;;;5051714;28;20363;-90
2023/03/06 08:10:00;;;;;;;;;;;10.30;54.20;;;;;;5033162;28;20034;-90
2023/03/06 08:12:26;;;;;;;;;;;10.30;54.50;;;;;;5048582;28;20088;-89
2023/03/06 08:14:54;;;;;;;;;;;10.20;54.80;;;;;;5040350;28;19955;-90
2023/03/06 08:17:20;;;;;;;;;;;10.30;55.00;;;;;;5043531;28;19922;-89
2023/03/06 08:19:48;;;;;;;;;;;10.20;55.40;;;;;;5048368;28;20303;-89
2023/03/06 08:22:14;;;;;;;;;;;10.20;55.70;;;;;;5048563;28;19917;-89
2023/03/06 08:24:39;;;;;;;;;;;10.20;56.20;;;;;;5026851;28;20348;-89
2023/03/06 08:27:05;;;;;;;;;;;10.30;56.80;;;;;;5048235;28;19974;-90
2023/03/06 08:29:33;;;;;;;;;;;10.20;57.20;;;;;;5042775;28;20336;-91
2023/03/06 08:31:59;;;;;;;;;;;10.20;57.40;;;;;;5042546;28;19929;-90
2023/03/06 08:34:24;;;;;;;;;;;10.20;57.60;;;;;;5022937;28;19917;-87
2023/03/06 08:36:50;;;;;;;;;;;10.10;57.90;;;;;;5024496;28;20360;-90
2023/03/06 08:39:16;;;;;;;;;;;10.10;58.30;;;;;;5024302;28;19921;-91
2023/03/06 08:41:42;;;;;;;;;;;10.10;58.50;;;;;;5025538;28;19964;-91
2023/03/06 08:44:07;;;;;;;;;;;10.10;58.60;;;;;;5021984;28;20026;-89
2023/03/06 08:46:33;;;;;;;;;;;10.00;58.80;;;;;;5024676;28;19952;-90
2023/03/06 08:48:59;;;;;;;;;;;10.00;59.10;;;;;;5024258;28;19952;-87
2023/03/06 08:51:27;;;;;;;;;;;10.00;59.00;;;;;;5025390;28;19924;-90
2023/03/06 08:53:53;;;;;;;;;;;10.00;59.20;;;;;;5040563;28;19932;-92
2023/03/06 08:56:29;;;;;;;;;;;9.90;59.40;;;;;;5027054;28;20322;-87
2023/03/06 08:58:55;;;;;;;;;;;9.90;59.40;;;;;;5044261;28;19999;-90
2023/03/06 09:01:25;;;;;;;;;;;9.90;59.70;;;;;;5046391;28;19975;-90
2023/03/06 09:03:55;;;;;;;;;;;10.00;60.00;;;;;;5027969;28;19921;-89
2023/03/06 09:06:21;;;;;;;;;;;10.00;60.30;;;;;;5026456;28;19917;-90
2023/03/06 09:08:47;;;;;;;;;;;10.20;60.40;;;;;;5024898;28;20549;-88
2023/03/06 09:11:14;;;;;;;;;;;10.20;60.50;;;;;;5046573;28;20015;-89
2023/03/06 09:13:40;;;;;;;;;;;10.20;60.70;;;;;;5022610;28;19924;-89
2023/03/06 09:16:06;;;;;;;;;;;10.30;60.70;;;;;;5042516;28;19925;-87
2023/03/06 09:18:52;;;;;;;;;;;10.30;60.90;;;;;;5026715;28;19924;-89
2023/03/06 09:21:21;;;;;;;;;;;10.30;60.60;;;;;;5029247;28;19913;-91
2023/03/06 09:23:49;;;;;;;;;;;10.30;60.80;;;;;;5041936;28;19970;-91
2023/03/06 09:26:15;;;;;;;;;;;10.30;61.00;;;;;;5030358;28;19913;-91
2023/03/06 09:28:43;;;;;;;;;;;10.30;61.20;;;;;;5029618;28;20433;-88
2023/03/06 09:31:08;;;;;;;;;;;10.30;61.40;;;;;;5030721;28;19924;-91
2023/03/06 09:33:36;;;;;;;;;;;10.40;61.30;;;;;;5030558;28;19924;-88
2023/03/06 09:36:02;;;;;;;;;;;10.50;61.30;;;;;;5049771;28;19918;-88
2023/03/06 09:38:28;;;;;;;;;;;10.50;61.60;;;;;;5032470;28;19940;-90
2023/03/06 09:40:56;;;;;;;;;;;10.60;61.70;;;;;;5031953;28;20021;-90
2023/03/06 09:43:28;;;;;;;;;;;10.70;61.60;;;;;;5049607;28;19947;-89
2023/03/06 09:45:54;;;;;;;;;;;10.70;61.70;;;;;;5030893;28;19917;-88
2023/03/06 09:48:21;;;;;;;;;;;10.70;61.60;;;;;;5045980;28;20292;-88
2023/03/06 09:50:53;;;;;;;;;;;10.70;61.20;;;;;;5048098;28;20176;-88
2023/03/06 09:53:38;;;;;;;;;;;10.70;61.30;;;;;;5029133;28;19931;-89
2023/03/06 09:56:11;;;;;;;;;;;10.60;61.20;;;;;;5022963;28;19913;-89
2023/03/06 09:58:41;;;;;;;;;;;10.60;61.40;;;;;;5046186;28;19921;-89
2023/03/06 10:01:22;;;;;;;;;;;10.60;61.50;;;;;;5021473;28;19917;-89
2023/03/06 10:04:00;;;;;;;;;;;10.60;61.60;;;;;;5049159;28;19927;-89
2023/03/06 10:06:28;;;;;;;;;;;10.60;61.40;;;;;;5031391;28;20377;-89
2023/03/06 10:08:59;;;;;;;;;;;10.70;62.00;;;;;;5028697;28;19921;-89
2023/03/06 10:11:28;;;;;;;;;;;10.80;61.80;;;;;;5030049;28;20059;-90
2023/03/06 10:14:01;;;;;;;;;;;10.90;61.80;;;;;;5034076;28;19984;-89
2023/03/06 10:16:30;;;;;;;;;;;11.00;61.60;;;;;;5031739;28;19935;-90
2023/03/06 10:18:59;;;;;;;;;;;11.00;61.30;;;;;;5049055;28;19947;-91
2023/03/06 10:21:49;;;;;;;;;;;11.10;61.40;;;;;;5031574;28;19916;-91
2023/03/06 10:24:33;;;;;;;;;;;11.10;61.40;;;;;;5049443;28;19970;-89
2023/03/06 10:27:07;;;;;;;;;;;11.20;61.60;;;;;;5031694;28;19924;-91
2023/03/06 10:29:37;;;;;;;;;;;11.10;61.40;;;;;;5031292;28;20035;-90
2023/03/06 10:32:26;;;;;;;;;;;11.20;61.30;;;;;;5029913;28;19924;-90
2023/03/06 10:35:02;;;;;;;;;;;;;;;;;;;;;
2023/03/06 10:37:28;;;;;;;;;;;11.30;61.70;;;;;;5047571;28;20391;-89
2023/03/06 10:39:59;;;;;;;;;;;11.50;61.40;;;;;;5031345;28;20015;-91
2023/03/06 10:42:36;;;;;;;;;;;11.60;61.90;;;;;;5031353;28;20359;-91
2023/03/06 10:45:06;;;;;;;;;;;11.80;61.90;;;;;;5016610;28;19917;-89
2023/03/06 10:47:39;;;;;;;;;;;12.00;62.40;;;;;;5009214;28;19948;-91
2023/03/06 10:50:17;;;;;;;;;;;12.30;62.50;;;;;;5018568;28;19960;-92
2023/03/06 10:52:53;;;;;;;;;;;12.70;63.00;;;;;;5040051;28;20288;-89
2023/03/06 10:55:28;;;;;;;;;;;13.10;62.30;;;;;;5035947;28;20396;-91
2023/03/06 10:57:53;;;;;;;;;;;13.20;61.40;;;;;;5026615;28;19917;-89
2023/03/06 11:00:28;;;;;;;;;;;13.20;61.00;;;;;;5042215;28;19924;-90
2023/03/06 11:03:05;;;;;;;;;;;13.20;60.70;;;;;;5040390;28;20360;-88
2023/03/06 11:05:47;;;;;;;;;;;13.00;60.20;;;;;;5026607;28;19917;-91
2023/03/06 11:08:19;;;;;;;;;;;12.80;60.40;;;;;;5039386;28;19964;-88
2023/03/06 11:10:59;;;;;;;;;;;12.70;60.70;;;;;;5045836;28;19975;-90
2023/03/06 11:13:26;;;;;;;;;;;12.50;60.60;;;;;;5026466;28;19964;-91
2023/03/06 11:15:56;;;;;;;;;;;12.40;60.60;;;;;;5043657;28;20287;-90
2023/03/06 11:18:27;;;;;;;;;;;12.30;60.90;;;;;;5024960;28;19916;-89
2023/03/06 11:20:53;;;;;;;;;;;12.30;60.90;;;;;;5045433;28;19936;-90
2023/03/06 11:23:23;;;;;;;;;;;12.30;60.70;;;;;;5027453;28;20070;-88
2023/03/06 11:28:59;;;;;;;;;;;12.40;61.20;;;;;;5043056;28;19917;-90
2023/03/06 11:31:31;;;;;;;;;;;12.60;62.00;;;;;;5047341;28;20372;-87
2023/03/06 11:34:16;;;;;;;;;;;12.80;61.90;;;;;;5044528;28;20141;-88
2023/03/06 11:36:57;;;;;;;;;;;12.90;61.70;;;;;;5026989;28;19917;-90
2023/03/06 11:39:46;;;;;;;;;;;12.90;61.60;;;;;;5045212;28;19956;-90
2023/03/06 11:42:20;;;;;;;;;;;12.80;60.90;;;;;;5044069;28;19925;-89
2023/03/06 11:44:53;;;;;;;;;;;12.50;59.50;;;;;;5044310;28;19913;-90
2023/03/06 11:47:27;;;;;;;;;;;12.30;59.60;;;;;;5043502;28;19921;-88
2023/03/06 11:50:02;;;;;;;;;;;12.00;59.80;;;;;;5025918;28;20004;-89
2023/03/06 11:52:35;;;;;;;;;;;12.00;60.40;;;;;;5027428;28;19932;-90
2023/03/06 11:55:14;;;;;;;;;;;;;;;;;;;;;
2023/03/06 11:57:52;;;;;;;;;;;12.20;61.80;;;;;;5044690;28;19912;-91
2023/03/06 12:00:27;;;;;;;;;;;12.40;62.60;;;;;;5025126;28;19971;-89
2023/03/06 12:03:16;;;;;;;;;;;13.00;63.10;;;;;;5021581;28;20356;-89
2023/03/06 12:05:46;;;;;;;;;;;13.40;61.10;;;;;;5041506;28;19929;-90
2023/03/06 12:08:29;;;;;;;;;;;13.40;59.40;;;;;;5044221;28;19912;-90
2023/03/06 12:11:01;;;;;;;;;;;13.20;58.50;;;;;;5044844;28;20278;-91
2023/03/06 12:13:42;;;;;;;;;;;13.00;58.10;;;;;;5043647;28;20409;-90
2023/03/06 12:16:13;;;;;;;;;;;12.80;58.00;;;;;;5042945;28;19932;-91
2023/03/06 12:19:03;;;;;;;;;;;12.70;59.10;;;;;;5024753;28;19959;-89
2023/03/06 12:21:50;;;;;;;;;;;12.80;59.70;;;;;;5025651;28;19913;-90
2023/03/06 12:24:44;;;;;;;;;;;13.00;60.60;;;;;;5046414;28;20402;-91
2023/03/06 12:27:16;;;;;;;;;;;13.30;61.30;;;;;;5019626;28;19995;-90
2023/03/06 12:29:47;;;;;;;;;;;13.90;61.60;;;;;;5025119;28;19943;-88
2023/03/06 12:32:33;;;;;;;;;;;14.50;61.70;;;;;;5040267;28;19925;-89
2023/03/06 12:35:40;;;;;;;;;;;15.10;60.40;;;;;;5027059;28;19963;-90
2023/03/06 12:38:28;;;;;;;;;;;15.30;59.30;;;;;;5029149;28;19913;-90
2023/03/06 12:41:15;;;;;;;;;;;15.40;58.50;;;;;;5044774;28;20547;-90
2023/03/06 12:43:59;;;;;;;;;;;15.70;59.60;;;;;;5041335;28;19956;-91
2023/03/06 12:46:40;;;;;;;;;;;16.20;59.70;;;;;;5043306;28;20367;-88
2023/03/06 12:49:11;;;;;;;;;;;16.50;59.80;;;;;;5021015;28;19925;-90
2023/03/06 12:54:42;;;;;;;;;;;17.20;57.90;;;;;;5014998;28;19928;-91
2023/03/06 12:57:13;;;;;;;;;;;17.10;57.30;;;;;;5026360;28;19920;-89
2023/03/06 12:59:46;;;;;;;;;;;16.90;56.50;;;;;;5039156;28;20312;-89
2023/03/06 13:02:14;;;;;;;;;;;16.80;55.70;;;;;;5040899;28;20391;-90
2023/03/06 13:04:55;;;;;;;;;;;16.70;53.60;;;;;;5021409;28;19913;-91
2023/03/06 13:07:33;;;;;;;;;;;16.30;53.40;;;;;;5041941;28;19917;-91
2023/03/06 13:10:12;;;;;;;;;;;16.00;54.00;;;;;;5044210;28;20327;-89
2023/03/06 13:12:59;;;;;;;;;;;15.60;53.60;;;;;;5025072;28;19944;-92
2023/03/06 13:15:38;;;;;;;;;;;15.30;55.10;;;;;;5040256;28;20351;-90
2023/03/06 13:18:24;;;;;;;;;;;15.10;56.00;;;;;;5047482;28;20419;-91
2023/03/06 13:20:51;;;;;;;;;;;15.00;57.00;;;;;;5044749;28;19929;-90
2023/03/06 13:23:49;;;;;;;;;;;15.00;57.10;;;;;;5043263;28;19928;-89
2023/03/06 13:26:29;;;;;;;;;;;15.10;56.20;;;;;;5045808;28;19917;-90
2023/03/06 13:29:20;;;;;;;;;;;15.00;55.80;;;;;;5023873;28;20284;-92
2023/03/06 13:31:45;;;;;;;;;;;15.00;57.40;;;;;;5045805;28;19998;-91
2023/03/06 13:34:32;;;;;;;;;;;15.10;57.90;;;;;;5024821;28;19963;-91
2023/03/06 13:37:22;;;;;;;;;;;15.00;55.90;;;;;;5045087;28;19928;-91
2023/03/06 13:40:12;;;;;;;;;;;14.80;56.60;;;;;;5025071;28;19928;-92
2023/03/06 13:42:41;;;;;;;;;;;14.50;56.00;;;;;;5042580;28;19917;-91
2023/03/06 13:45:08;;;;;;;;;;;14.20;56.60;;;;;;5024022;28;19921;-89
2023/03/06 13:47:48;;;;;;;;;;;;;;;;;;;;;
2023/03/06 13:50:33;;;;;;;;;;;13.80;56.40;;;;;;5040250;28;19913;-88
2023/03/06 13:53:16;;;;;;;;;;;13.60;58.00;;;;;;5041616;28;20264;-92
2023/03/06 13:55:59;;;;;;;;;;;13.30;57.20;;;;;;5025734;28;19917;-90
2023/03/06 13:58:38;;;;;;;;;;;13.20;57.00;;;;;;5039832;28;19913;-91
2023/03/06 14:01:10;;;;;;;;;;;13.00;56.90;;;;;;5025786;28;19986;-90
2023/03/06 14:03:35;;;;;;;;;;;12.80;58.70;;;;;;5025633;28;19932;-90
2023/03/06 14:06:21;;;;;;;;;;;12.80;59.40;;;;;;5026040;28;19924;-90
2023/03/06 14:08:47;;;;;;;;;;;12.80;59.60;;;;;;5044851;28;19913;-89
2023/03/06 14:11:18;;;;;;;;;;;12.90;60.30;;;;;;5042330;28;19932;-88
2023/03/06 14:13:47;;;;;;;;;;;13.00;60.40;;;;;;5046413;28;19999;-87
2023/03/06 14:16:20;;;;;;;;;;;13.20;60.50;;;;;;5043543;28;21598;-90
2023/03/06 14:18:47;;;;;;;;;;;13.30;60.00;;;;;;5026610;28;19913;-88
2023/03/06 14:21:14;;;;;;;;;;;13.50;59.40;;;;;;5034790;28;20222;-90
2023/03/06 14:23:45;;;;;;;;;;;13.50;59.10;;;;;;5042180;28;19913;-92
2023/03/06 14:26:30;;;;;;;;;;;13.50;59.40;;;;;;5044975;28;19917;-91
2023/03/06 14:28:57;;;;;;;;;;;13.50;60.30;;;;;;5023161;28;20354;-90
2023/03/06 14:31:24;;;;;;;;;;;13.50;60.30;;;;;;5024226;28;19924;-89
2023/03/06 14:33:57;;;;;;;;;;;13.50;60.10;;;;;;5023107;28;20008;-88
2023/03/06 14:36:40;;;;;;;;;;;13.50;60.10;;;;;;5027317;28;19919;-88
2023/03/06 14:39:14;;;;;;;;;;;13.50;60.40;;;;;;5045611;28;19929;-91
2023/03/06 14:41:40;;;;;;;;;;;13.50;59.90;;;;;;5025544;28;19921;-89
2023/03/06 14:44:16;;;;;;;;;;;13.50;59.40;;;;;;5043776;28;19917;-89
2023/03/06 14:46:43;;;;;;;;;;;13.60;60.30;;;;;;5042282;28;19967;-88